sensor_id;sensor_type;location;lat;lon;timestamp;temperature;humidity
34815;DHT22;21030;53.912;15.214;2023-09-18T00:00:45;39.40;29.30
34815;DHT22;21030;53.912;15.214;2023-09-18T00:03:13;39.30;29.40
34815;DHT22;21030;53.912;15.214;2023-09-18T00:05:40;39.10;29.50
34815;DHT22;21030;53.912;15.214;2023-09-18T00:08:07;39.10;29.70
34815;DHT22;21030;53.912;15.214;2023-09-18T00:10:35;39.10;29.50
34815;DHT22;21030;53.912;15.214;2023-09-18T00:13:02;39.10;29.40
34815;DHT22;21030;53.912;15.214;2023-09-18T00:15:29;39.10;29.40
34815;DHT22;21030;53.912;15.214;2023-09-18T00:17:57;39.20;29.40
34815;DHT22;21030;53.912;15.214;2023-09-18T00:20:24;39.30;29.30
34815;DHT22;21030;53.912;15.214;2023-09-18T00:22:54;39.30;29.20
34815;DHT22;21030;53.912;15.214;2023-09-18T00:25:22;39.30;29.20
34815;DHT22;21030;53.912;15.214;2023-09-18T00:27:49;39.20;29.20
34815;DHT22;21030;53.912;15.214;2023-09-18T00:30:20;39.10;29.20
34815;DHT22;21030;53.912;15.214;2023-09-18T00:32:47;39.10;29.30
34815;DHT22;21030;53.912;15.214;2023-09-18T00:35:17;39.10;29.40
34815;DHT22;21030;53.912;15.214;2023-09-18T00:37:44;39.10;29.40
34815;DHT22;21030;53.912;15.214;2023-09-18T00:40:13;38.90;29.50
34815;DHT22;21030;53.912;15.214;2023-09-18T00:42:40;38.90;29.50
34815;DHT22;21030;53.912;15.214;2023-09-18T00:45:07;38.90;29.50
34815;DHT22;21030;53.912;15.214;2023-09-18T00:47:36;38.90;29.40
34815;DHT22;21030;53.912;15.214;2023-09-18T00:50:04;38.90;29.60
34815;DHT22;21030;53.912;15.214;2023-09-18T00:52:34;38.90;29.40
34815;DHT22;21030;53.912;15.214;2023-09-18T00:55:01;38.90;29.30
34815;DHT22;21030;53.912;15.214;2023-09-18T00:57:29;39.00;29.30
34815;DHT22;21030;53.912;15.214;2023-09-18T00:59:56;38.90;29.40
34815;DHT22;21030;53.912;15.214;2023-09-18T01:02:23;38.60;29.40
34815;DHT22;21030;53.912;15.214;2023-09-18T01:04:50;38.50;29.90
34815;DHT22;21030;53.912;15.214;2023-09-18T01:07:17;38.60;29.80
34815;DHT22;21030;53.912;15.214;2023-09-18T01:09:44;38.50;29.70
34815;DHT22;21030;53.912;15.214;2023-09-18T01:17:47;38.60;29.70
34815;DHT22;21030;53.912;15.214;2023-09-18T01:20:15;38.40;29.70
34815;DHT22;21030;53.912;15.214;2023-09-18T01:22:43;38.50;29.60
34815;DHT22;21030;53.912;15.214;2023-09-18T01:25:10;38.50;29.80
34815;DHT22;21030;53.912;15.214;2023-09-18T01:27:37;38.30;29.90
34815;DHT22;21030;53.912;15.214;2023-09-18T01:30:04;38.60;29.60
34815;DHT22;21030;53.912;15.214;2023-09-18T01:32:32;38.40;29.70
34815;DHT22;21030;53.912;15.214;2023-09-18T01:35:04;38.60;29.70
34815;DHT22;21030;53.912;15.214;2023-09-18T01:37:36;38.30;29.70
34815;DHT22;21030;53.912;15.214;2023-09-18T01:40:06;37.70;30.20
34815;DHT22;21030;53.912;15.214;2023-09-18T01:42:36;37.70;30.40
34815;DHT22;21030;53.912;15.214;2023-09-18T01:45:05;37.90;30.10
34815;DHT22;21030;53.912;15.214;2023-09-18T01:47:34;38.10;30.00
34815;DHT22;21030;53.912;15.214;2023-09-18T01:50:06;38.40;29.80
34815;DHT22;21030;53.912;15.214;2023-09-18T01:52:35;38.50;29.40
34815;DHT22;21030;53.912;15.214;2023-09-18T01:55:05;38.60;29.50
34815;DHT22;21030;53.912;15.214;2023-09-18T01:57:34;38.40;29.60
34815;DHT22;21030;53.912;15.214;2023-09-18T02:00:08;38.20;29.80
34815;DHT22;21030;53.912;15.214;2023-09-18T02:02:37;38.20;29.80
34815;DHT22;21030;53.912;15.214;2023-09-18T02:05:26;38.40;29.60
34815;DHT22;21030;53.912;15.214;2023-09-18T02:07:56;38.50;29.60
34815;DHT22;21030;53.912;15.214;2023-09-18T02:10:24;38.80;29.40
34815;DHT22;21030;53.912;15.214;2023-09-18T02:12:52;38.70;29.20
34815;DHT22;21030;53.912;15.214;2023-09-18T02:15:22;38.70;29.30
34815;DHT22;21030;53.912;15.214;2023-09-18T02:17:55;38.70;29.30
34815;DHT22;21030;53.912;15.214;2023-09-18T02:20:24;38.70;29.30
34815;DHT22;21030;53.912;15.214;2023-09-18T02:22:52;38.80;29.20
34815;DHT22;21030;53.912;15.214;2023-09-18T02:25:20;38.80;29.20
34815;DHT22;21030;53.912;15.214;2023-09-18T02:27:50;38.70;29.20
34815;DHT22;21030;53.912;15.214;2023-09-18T02:30:23;38.70;29.20
34815;DHT22;21030;53.912;15.214;2023-09-18T02:32:52;38.80;29.10
34815;DHT22;21030;53.912;15.214;2023-09-18T02:35:21;38.80;29.20
34815;DHT22;21030;53.912;15.214;2023-09-18T02:37:50;38.50;29.40
34815;DHT22;21030;53.912;15.214;2023-09-18T02:40:19;37.90;29.70
34815;DHT22;21030;53.912;15.214;2023-09-18T02:42:48;37.30;30.50
34815;DHT22;21030;53.912;15.214;2023-09-18T02:45:17;37.50;30.50
34815;DHT22;21030;53.912;15.214;2023-09-18T02:47:45;38.10;29.90
34815;DHT22;21030;53.912;15.214;2023-09-18T02:50:14;37.90;30.00
34815;DHT22;21030;53.912;15.214;2023-09-18T02:52:43;37.70;30.10
34815;DHT22;21030;53.912;15.214;2023-09-18T02:55:13;37.90;30.10
34815;DHT22;21030;53.912;15.214;2023-09-18T02:57:42;38.20;29.80
34815;DHT22;21030;53.912;15.214;2023-09-18T03:00:11;38.40;29.30
34815;DHT22;21030;53.912;15.214;2023-09-18T03:02:39;38.40;29.50
34815;DHT22;21030;53.912;15.214;2023-09-18T03:05:08;38.50;29.40
34815;DHT22;21030;53.912;15.214;2023-09-18T03:07:37;38.60;29.30
34815;DHT22;21030;53.912;15.214;2023-09-18T03:10:07;38.40;29.40
34815;DHT22;21030;53.912;15.214;2023-09-18T03:12:36;38.30;29.50
34815;DHT22;21030;53.912;15.214;2023-09-18T03:15:05;38.00;29.80
34815;DHT22;21030;53.912;15.214;2023-09-18T03:17:35;37.70;30.20
34815;DHT22;21030;53.912;15.214;2023-09-18T03:20:05;37.90;29.90
34815;DHT22;21030;53.912;15.214;2023-09-18T03:22:35;37.70;30.10
34815;DHT22;21030;53.912;15.214;2023-09-18T03:25:05;37.80;30.10
34815;DHT22;21030;53.912;15.214;2023-09-18T03:27:34;37.90;29.90
34815;DHT22;21030;53.912;15.214;2023-09-18T03:30:03;37.80;30.00
34815;DHT22;21030;53.912;15.214;2023-09-18T03:32:33;38.10;29.90
34815;DHT22;21030;53.912;15.214;2023-09-18T03:35:01;38.40;29.60
34815;DHT22;21030;53.912;15.214;2023-09-18T03:37:31;38.50;29.40
34815;DHT22;21030;53.912;15.214;2023-09-18T03:40:00;38.60;29.30
34815;DHT22;21030;53.912;15.214;2023-09-18T03:42:30;38.60;29.30
34815;DHT22;21030;53.912;15.214;2023-09-18T03:44:58;37.80;29.80
34815;DHT22;21030;53.912;15.214;2023-09-18T03:47:27;37.90;30.00
34815;DHT22;21030;53.912;15.214;2023-09-18T03:49:56;37.80;30.00
34815;DHT22;21030;53.912;15.214;2023-09-18T03:52:24;37.30;30.00
34815;DHT22;21030;53.912;15.214;2023-09-18T03:54:54;37.50;30.40
34815;DHT22;21030;53.912;15.214;2023-09-18T03:57:23;37.50;30.20
34815;DHT22;21030;53.912;15.214;2023-09-18T03:59:52;37.50;30.40
34815;DHT22;21030;53.912;15.214;2023-09-18T04:02:23;37.40;30.40
34815;DHT22;21030;53.912;15.214;2023-09-18T04:04:54;37.30;30.60
34815;DHT22;21030;53.912;15.214;2023-09-18T04:07:22;36.80;31.30
34815;DHT22;21030;53.912;15.214;2023-09-18T04:09:53;36.50;31.90
34815;DHT22;21030;53.912;15.214;2023-09-18T04:12:21;36.20;31.80
34815;DHT22;21030;53.912;15.214;2023-09-18T04:14:50;36.60;31.40
34815;DHT22;21030;53.912;15.214;2023-09-18T04:17:19;36.30;31.80
34815;DHT22;21030;53.912;15.214;2023-09-18T04:19:49;36.20;32.30
34815;DHT22;21030;53.912;15.214;2023-09-18T04:22:18;36.60;31.80
34815;DHT22;21030;53.912;15.214;2023-09-18T04:24:47;37.30;31.20
34815;DHT22;21030;53.912;15.214;2023-09-18T04:27:18;37.30;30.80
34815;DHT22;21030;53.912;15.214;2023-09-18T04:29:46;37.80;30.30
34815;DHT22;21030;53.912;15.214;2023-09-18T04:32:15;37.80;30.30
34815;DHT22;21030;53.912;15.214;2023-09-18T04:34:45;36.90;30.90
34815;DHT22;21030;53.912;15.214;2023-09-18T04:37:13;37.10;31.10
34815;DHT22;21030;53.912;15.214;2023-09-18T04:39:42;37.20;30.70
34815;DHT22;21030;53.912;15.214;2023-09-18T04:42:09;37.60;30.50
34815;DHT22;21030;53.912;15.214;2023-09-18T04:44:38;37.60;30.60
34815;DHT22;21030;53.912;15.214;2023-09-18T04:47:07;37.50;30.70
34815;DHT22;21030;53.912;15.214;2023-09-18T04:49:34;37.30;30.80
34815;DHT22;21030;53.912;15.214;2023-09-18T04:52:02;38.00;30.20
34815;DHT22;21030;53.912;15.214;2023-09-18T04:54:29;37.80;30.20
34815;DHT22;21030;53.912;15.214;2023-09-18T04:56:56;38.00;30.10
34815;DHT22;21030;53.912;15.214;2023-09-18T04:59:24;37.80;30.20
34815;DHT22;21030;53.912;15.214;2023-09-18T05:01:51;38.10;30.00
34815;DHT22;21030;53.912;15.214;2023-09-18T05:04:18;38.10;30.00
34815;DHT22;21030;53.912;15.214;2023-09-18T05:06:45;38.40;29.90
34815;DHT22;21030;53.912;15.214;2023-09-18T05:09:14;38.50;29.80
34815;DHT22;21030;53.912;15.214;2023-09-18T05:11:41;38.90;29.40
34815;DHT22;21030;53.912;15.214;2023-09-18T05:14:09;39.10;29.20
34815;DHT22;21030;53.912;15.214;2023-09-18T05:16:36;39.10;28.90
34815;DHT22;21030;53.912;15.214;2023-09-18T05:19:04;39.00;29.30
34815;DHT22;21030;53.912;15.214;2023-09-18T05:21:31;39.10;29.30
34815;DHT22;21030;53.912;15.214;2023-09-18T05:23:58;39.40;29.00
34815;DHT22;21030;53.912;15.214;2023-09-18T05:26:25;39.40;29.10
34815;DHT22;21030;53.912;15.214;2023-09-18T05:28:54;39.50;28.80
34815;DHT22;21030;53.912;15.214;2023-09-18T05:31:21;39.70;28.70
34815;DHT22;21030;53.912;15.214;2023-09-18T05:33:48;39.80;28.60
34815;DHT22;21030;53.912;15.214;2023-09-18T05:36:16;39.90;28.40
34815;DHT22;21030;53.912;15.214;2023-09-18T05:38:42;39.70;28.50
34815;DHT22;21030;53.912;15.214;2023-09-18T05:41:13;39.50;28.70
34815;DHT22;21030;53.912;15.214;2023-09-18T05:43:40;39.70;28.60
34815;DHT22;21030;53.912;15.214;2023-09-18T05:46:07;39.90;28.60
34815;DHT22;21030;53.912;15.214;2023-09-18T05:48:34;39.50;28.70
34815;DHT22;21030;53.912;15.214;2023-09-18T05:51:01;39.40;28.80
34815;DHT22;21030;53.912;15.214;2023-09-18T05:53:28;39.50;28.80
34815;DHT22;21030;53.912;15.214;2023-09-18T05:55:57;39.60;28.80
34815;DHT22;21030;53.912;15.214;2023-09-18T05:58:33;38.70;29.20
34815;DHT22;21030;53.912;15.214;2023-09-18T06:01:02;38.70;29.60
34815;DHT22;21030;53.912;15.214;2023-09-18T06:03:29;38.80;29.20
34815;DHT22;21030;53.912;15.214;2023-09-18T06:06:03;39.30;29.00
34815;DHT22;21030;53.912;15.214;2023-09-18T06:08:30;38.60;29.10
34815;DHT22;21030;53.912;15.214;2023-09-18T06:10:57;39.30;29.20
34815;DHT22;21030;53.912;15.214;2023-09-18T06:13:25;39.70;28.50
34815;DHT22;21030;53.912;15.214;2023-09-18T06:15:53;39.60;28.20
34815;DHT22;21030;53.912;15.214;2023-09-18T06:18:22;39.90;28.40
34815;DHT22;21030;53.912;15.214;2023-09-18T06:20:49;40.00;28.10
34815;DHT22;21030;53.912;15.214;2023-09-18T06:23:16;40.70;28.20
34815;DHT22;21030;53.912;15.214;2023-09-18T06:25:43;41.00;27.80
34815;DHT22;21030;53.912;15.214;2023-09-18T06:28:10;41.20;27.50
34815;DHT22;21030;53.912;15.214;2023-09-18T06:30:37;41.10;27.60
34815;DHT22;21030;53.912;15.214;2023-09-18T06:33:04;41.50;27.20
34815;DHT22;21030;53.912;15.214;2023-09-18T06:35:32;41.70;27.10
34815;DHT22;21030;53.912;15.214;2023-09-18T06:37:59;42.10;27.00
34815;DHT22;21030;53.912;15.214;2023-09-18T06:40:26;41.80;26.80
34815;DHT22;21030;53.912;15.214;2023-09-18T06:42:58;42.10;26.70
34815;DHT22;21030;53.912;15.214;2023-09-18T06:45:27;42.70;26.40
34815;DHT22;21030;53.912;15.214;2023-09-18T06:47:55;42.20;26.20
34815;DHT22;21030;53.912;15.214;2023-09-18T06:50:22;42.50;26.30
34815;DHT22;21030;53.912;15.214;2023-09-18T06:52:49;42.80;26.00
34815;DHT22;21030;53.912;15.214;2023-09-18T06:55:16;42.40;25.80
34815;DHT22;21030;53.912;15.214;2023-09-18T06:57:43;43.40;25.80
34815;DHT22;21030;53.912;15.214;2023-09-18T07:00:11;43.60;25.40
34815;DHT22;21030;53.912;15.214;2023-09-18T07:02:42;43.80;25.40
34815;DHT22;21030;53.912;15.214;2023-09-18T07:05:09;43.30;25.40
34815;DHT22;21030;53.912;15.214;2023-09-18T07:07:39;43.20;25.60
34815;DHT22;21030;53.912;15.214;2023-09-18T07:10:06;42.80;25.50
34815;DHT22;21030;53.912;15.214;2023-09-18T07:12:34;43.70;25.70
34815;DHT22;21030;53.912;15.214;2023-09-18T07:15:02;44.30;25.30
34815;DHT22;21030;53.912;15.214;2023-09-18T07:17:31;43.40;25.10
34815;DHT22;21030;53.912;15.214;2023-09-18T07:19:58;44.00;25.20
34815;DHT22;21030;53.912;15.214;2023-09-18T07:22:27;44.10;25.30
34815;DHT22;21030;53.912;15.214;2023-09-18T07:24:57;44.10;24.90
34815;DHT22;21030;53.912;15.214;2023-09-18T07:27:24;43.70;25.20
34815;DHT22;21030;53.912;15.214;2023-09-18T07:29:55;42.90;25.50
34815;DHT22;21030;53.912;15.214;2023-09-18T07:32:22;43.00;25.70
34815;DHT22;21030;53.912;15.214;2023-09-18T07:35:04;42.40;26.10
34815;DHT22;21030;53.912;15.214;2023-09-18T07:37:31;42.10;26.30
34815;DHT22;21030;53.912;15.214;2023-09-18T07:39:58;41.80;26.80
34815;DHT22;21030;53.912;15.214;2023-09-18T07:42:26;42.20;26.60
34815;DHT22;21030;53.912;15.214;2023-09-18T07:44:54;42.50;26.40
34815;DHT22;21030;53.912;15.214;2023-09-18T07:47:24;43.10;26.20
34815;DHT22;21030;53.912;15.214;2023-09-18T07:49:52;43.20;25.90
34815;DHT22;21030;53.912;15.214;2023-09-18T07:52:21;43.30;25.90
34815;DHT22;21030;53.912;15.214;2023-09-18T07:54:48;44.00;25.60
34815;DHT22;21030;53.912;15.214;2023-09-18T07:57:15;43.60;25.60
34815;DHT22;21030;53.912;15.214;2023-09-18T07:59:42;43.80;25.20
34815;DHT22;21030;53.912;15.214;2023-09-18T08:02:09;44.20;25.40
34815;DHT22;21030;53.912;15.214;2023-09-18T08:04:36;43.90;25.40
34815;DHT22;21030;53.912;15.214;2023-09-18T08:07:04;44.10;25.20
34815;DHT22;21030;53.912;15.214;2023-09-18T08:09:34;43.30;25.50
34815;DHT22;21030;53.912;15.214;2023-09-18T08:12:04;43.70;25.50
34815;DHT22;21030;53.912;15.214;2023-09-18T08:14:31;43.40;25.80
34815;DHT22;21030;53.912;15.214;2023-09-18T08:17:01;43.80;25.40
34815;DHT22;21030;53.912;15.214;2023-09-18T08:19:30;44.60;25.00
34815;DHT22;21030;53.912;15.214;2023-09-18T08:21:58;44.10;24.80
34815;DHT22;21030;53.912;15.214;2023-09-18T08:24:31;44.90;25.70
34815;DHT22;21030;53.912;15.214;2023-09-18T08:26:58;45.20;24.90
34815;DHT22;21030;53.912;15.214;2023-09-18T08:29:25;44.40;25.00
34815;DHT22;21030;53.912;15.214;2023-09-18T08:31:52;44.70;24.40
34815;DHT22;21030;53.912;15.214;2023-09-18T08:34:19;45.00;24.80
34815;DHT22;21030;53.912;15.214;2023-09-18T08:36:49;44.10;24.60
34815;DHT22;21030;53.912;15.214;2023-09-18T08:39:17;44.10;24.80
34815;DHT22;21030;53.912;15.214;2023-09-18T08:41:45;44.60;25.00
34815;DHT22;21030;53.912;15.214;2023-09-18T08:44:15;44.40;25.00
34815;DHT22;21030;53.912;15.214;2023-09-18T08:46:44;44.90;24.70
34815;DHT22;21030;53.912;15.214;2023-09-18T08:49:11;45.20;24.80
34815;DHT22;21030;53.912;15.214;2023-09-18T08:51:39;45.10;24.50
34815;DHT22;21030;53.912;15.214;2023-09-18T08:54:09;44.10;24.70
34815;DHT22;21030;53.912;15.214;2023-09-18T08:56:36;44.10;24.70
34815;DHT22;21030;53.912;15.214;2023-09-18T08:59:04;44.40;24.90
34815;DHT22;21030;53.912;15.214;2023-09-18T09:01:31;45.60;24.80
34815;DHT22;21030;53.912;15.214;2023-09-18T09:03:59;45.40;24.50
34815;DHT22;21030;53.912;15.214;2023-09-18T09:06:27;45.70;24.40
34815;DHT22;21030;53.912;15.214;2023-09-18T09:08:54;45.90;24.10
34815;DHT22;21030;53.912;15.214;2023-09-18T09:11:22;45.90;24.00
34815;DHT22;21030;53.912;15.214;2023-09-18T09:14:12;45.90;23.70
34815;DHT22;21030;53.912;15.214;2023-09-18T09:16:48;46.60;24.10
34815;DHT22;21030;53.912;15.214;2023-09-18T09:19:17;46.50;23.30
34815;DHT22;21030;53.912;15.214;2023-09-18T09:24:48;47.20;23.30
34815;DHT22;21030;53.912;15.214;2023-09-18T09:27:15;47.90;22.80
34815;DHT22;21030;53.912;15.214;2023-09-18T09:30:00;48.00;22.70
34815;DHT22;21030;53.912;15.214;2023-09-18T09:32:31;47.80;22.80
34815;DHT22;21030;53.912;15.214;2023-09-18T09:34:59;46.80;22.90
34815;DHT22;21030;53.912;15.214;2023-09-18T09:37:30;46.10;23.10
34815;DHT22;21030;53.912;15.214;2023-09-18T09:40:03;44.80;24.10
34815;DHT22;21030;53.912;15.214;2023-09-18T09:42:40;44.20;24.40
34815;DHT22;21030;53.912;15.214;2023-09-18T09:45:13;45.10;24.50
34815;DHT22;21030;53.912;15.214;2023-09-18T09:47:41;45.80;23.90
34815;DHT22;21030;53.912;15.214;2023-09-18T09:50:15;46.10;23.30
34815;DHT22;21030;53.912;15.214;2023-09-18T09:52:49;46.20;23.20
34815;DHT22;21030;53.912;15.214;2023-09-18T09:55:19;46.10;22.70
34815;DHT22;21030;53.912;15.214;2023-09-18T09:57:53;45.00;23.20
34815;DHT22;21030;53.912;15.214;2023-09-18T10:00:20;44.70;23.70
34815;DHT22;21030;53.912;15.214;2023-09-18T10:02:59;44.70;23.80
34815;DHT22;21030;53.912;15.214;2023-09-18T10:05:32;44.70;23.90
34815;DHT22;21030;53.912;15.214;2023-09-18T10:08:04;44.00;24.00
34815;DHT22;21030;53.912;15.214;2023-09-18T10:10:35;44.10;24.60
34815;DHT22;21030;53.912;15.214;2023-09-18T10:13:10;43.80;24.70
34815;DHT22;21030;53.912;15.214;2023-09-18T10:15:39;43.60;24.70
34815;DHT22;21030;53.912;15.214;2023-09-18T10:21:38;44.40;24.60
34815;DHT22;21030;53.912;15.214;2023-09-18T10:24:19;43.10;24.80
34815;DHT22;21030;53.912;15.214;2023-09-18T10:26:58;44.10;24.90
34815;DHT22;21030;53.912;15.214;2023-09-18T10:29:26;43.90;24.60
34815;DHT22;21030;53.912;15.214;2023-09-18T10:31:54;43.90;24.60
34815;DHT22;21030;53.912;15.214;2023-09-18T10:34:23;44.60;24.40
34815;DHT22;21030;53.912;15.214;2023-09-18T10:36:51;44.60;24.50
34815;DHT22;21030;53.912;15.214;2023-09-18T10:39:21;44.50;24.80
34815;DHT22;21030;53.912;15.214;2023-09-18T10:41:55;44.30;24.20
34815;DHT22;21030;53.912;15.214;2023-09-18T10:44:23;45.20;24.40
34815;DHT22;21030;53.912;15.214;2023-09-18T10:46:51;45.80;23.90
34815;DHT22;21030;53.912;15.214;2023-09-18T10:49:20;46.30;23.70
34815;DHT22;21030;53.912;15.214;2023-09-18T10:51:48;46.60;23.20
34815;DHT22;21030;53.912;15.214;2023-09-18T10:54:16;45.80;22.50
34815;DHT22;21030;53.912;15.214;2023-09-18T10:56:47;44.90;23.10
34815;DHT22;21030;53.912;15.214;2023-09-18T10:59:15;44.80;23.50
34815;DHT22;21030;53.912;15.214;2023-09-18T11:01:49;44.40;23.60
34815;DHT22;21030;53.912;15.214;2023-09-18T11:04:21;44.00;23.90
34815;DHT22;21030;53.912;15.214;2023-09-18T11:09:27;44.40;24.10
34815;DHT22;21030;53.912;15.214;2023-09-18T11:14:57;45.20;23.60
34815;DHT22;21030;53.912;15.214;2023-09-18T11:17:38;44.90;23.30
34815;DHT22;21030;53.912;15.214;2023-09-18T11:20:17;44.90;23.10
34815;DHT22;21030;53.912;15.214;2023-09-18T11:23:10;44.70;23.20
34815;DHT22;21030;53.912;15.214;2023-09-18T11:25:43;44.50;23.00
34815;DHT22;21030;53.912;15.214;2023-09-18T11:28:15;44.70;23.20
34815;DHT22;21030;53.912;15.214;2023-09-18T11:30:50;44.30;22.90
34815;DHT22;21030;53.912;15.214;2023-09-18T11:33:39;44.60;23.20
34815;DHT22;21030;53.912;15.214;2023-09-18T11:36:24;44.10;23.00
34815;DHT22;21030;53.912;15.214;2023-09-18T11:38:58;43.40;23.50
34815;DHT22;21030;53.912;15.214;2023-09-18T11:41:32;44.00;24.20
34815;DHT22;21030;53.912;15.214;2023-09-18T11:46:49;44.20;23.90
34815;DHT22;21030;53.912;15.214;2023-09-18T11:49:22;44.40;23.20
34815;DHT22;21030;53.912;15.214;2023-09-18T11:51:50;43.90;23.10
34815;DHT22;21030;53.912;15.214;2023-09-18T11:54:18;43.30;23.60
34815;DHT22;21030;53.912;15.214;2023-09-18T11:56:45;42.90;24.00
34815;DHT22;21030;53.912;15.214;2023-09-18T11:59:13;43.40;23.70
34815;DHT22;21030;53.912;15.214;2023-09-18T12:01:40;43.20;24.20
34815;DHT22;21030;53.912;15.214;2023-09-18T12:04:07;43.30;23.80
34815;DHT22;21030;53.912;15.214;2023-09-18T12:06:44;43.00;24.00
34815;DHT22;21030;53.912;15.214;2023-09-18T12:09:12;43.00;23.70
34815;DHT22;21030;53.912;15.214;2023-09-18T12:11:41;42.30;23.80
34815;DHT22;21030;53.912;15.214;2023-09-18T12:14:10;42.30;23.80
34815;DHT22;21030;53.912;15.214;2023-09-18T12:16:38;42.10;24.20
34815;DHT22;21030;53.912;15.214;2023-09-18T12:19:06;42.30;24.20
34815;DHT22;21030;53.912;15.214;2023-09-18T12:21:40;43.20;24.20
34815;DHT22;21030;53.912;15.214;2023-09-18T12:24:25;43.60;24.10
34815;DHT22;21030;53.912;15.214;2023-09-18T12:26:53;43.20;23.90
34815;DHT22;21030;53.912;15.214;2023-09-18T12:29:21;42.80;24.20
34815;DHT22;21030;53.912;15.214;2023-09-18T12:31:48;42.90;24.70
34815;DHT22;21030;53.912;15.214;2023-09-18T12:34:21;42.80;24.80
34815;DHT22;21030;53.912;15.214;2023-09-18T12:36:50;42.80;24.30
34815;DHT22;21030;53.912;15.214;2023-09-18T12:39:18;42.50;25.00
34815;DHT22;21030;53.912;15.214;2023-09-18T12:41:46;42.90;25.10
34815;DHT22;21030;53.912;15.214;2023-09-18T12:44:14;43.50;25.20
34815;DHT22;21030;53.912;15.214;2023-09-18T12:46:44;43.80;25.20
34815;DHT22;21030;53.912;15.214;2023-09-18T12:49:20;42.80;25.20
34815;DHT22;21030;53.912;15.214;2023-09-18T12:51:56;43.00;25.50
34815;DHT22;21030;53.912;15.214;2023-09-18T12:54:40;42.40;26.20
34815;DHT22;21030;53.912;15.214;2023-09-18T12:57:09;42.90;26.10
34815;DHT22;21030;53.912;15.214;2023-09-18T12:59:37;42.90;25.70
34815;DHT22;21030;53.912;15.214;2023-09-18T13:02:05;43.30;25.80
34815;DHT22;21030;53.912;15.214;2023-09-18T13:04:35;42.90;25.70
34815;DHT22;21030;53.912;15.214;2023-09-18T13:07:10;42.50;25.60
34815;DHT22;21030;53.912;15.214;2023-09-18T13:09:38;42.60;25.70
34815;DHT22;21030;53.912;15.214;2023-09-18T13:12:06;43.20;26.20
34815;DHT22;21030;53.912;15.214;2023-09-18T13:14:59;42.60;25.70
34815;DHT22;21030;53.912;15.214;2023-09-18T13:17:42;43.50;25.90
34815;DHT22;21030;53.912;15.214;2023-09-18T13:20:17;43.20;25.70
34815;DHT22;21030;53.912;15.214;2023-09-18T13:22:52;43.40;25.10
34815;DHT22;21030;53.912;15.214;2023-09-18T13:25:30;43.80;25.40
34815;DHT22;21030;53.912;15.214;2023-09-18T13:28:08;44.00;25.30
34815;DHT22;21030;53.912;15.214;2023-09-18T13:30:37;43.10;25.40
34815;DHT22;21030;53.912;15.214;2023-09-18T13:33:09;43.50;25.30
34815;DHT22;21030;53.912;15.214;2023-09-18T13:35:41;43.50;25.00
34815;DHT22;21030;53.912;15.214;2023-09-18T13:38:09;42.60;25.30
34815;DHT22;21030;53.912;15.214;2023-09-18T13:40:42;42.20;25.40
34815;DHT22;21030;53.912;15.214;2023-09-18T13:43:09;42.30;25.50
34815;DHT22;21030;53.912;15.214;2023-09-18T13:45:37;41.30;25.80
34815;DHT22;21030;53.912;15.214;2023-09-18T13:48:06;41.00;26.40
34815;DHT22;21030;53.912;15.214;2023-09-18T13:50:34;40.80;26.60
34815;DHT22;21030;53.912;15.214;2023-09-18T13:53:02;41.50;26.50
34815;DHT22;21030;53.912;15.214;2023-09-18T13:55:32;42.00;26.00
34815;DHT22;21030;53.912;15.214;2023-09-18T13:57:59;42.30;25.90
34815;DHT22;21030;53.912;15.214;2023-09-18T14:00:26;42.90;25.70
34815;DHT22;21030;53.912;15.214;2023-09-18T14:02:53;43.40;25.60
34815;DHT22;21030;53.912;15.214;2023-09-18T14:05:21;43.00;25.70
34815;DHT22;21030;53.912;15.214;2023-09-18T14:07:48;42.90;25.80
34815;DHT22;21030;53.912;15.214;2023-09-18T14:10:16;42.80;25.70
34815;DHT22;21030;53.912;15.214;2023-09-18T14:12:45;42.10;25.70
34815;DHT22;21030;53.912;15.214;2023-09-18T14:15:12;42.50;26.20
34815;DHT22;21030;53.912;15.214;2023-09-18T14:17:40;41.00;26.10
34815;DHT22;21030;53.912;15.214;2023-09-18T14:20:07;40.70;26.90
34815;DHT22;21030;53.912;15.214;2023-09-18T14:22:35;40.50;26.80
34815;DHT22;21030;53.912;15.214;2023-09-18T14:25:03;40.10;27.40
34815;DHT22;21030;53.912;15.214;2023-09-18T14:27:34;40.00;27.60
34815;DHT22;21030;53.912;15.214;2023-09-18T14:30:03;40.00;27.50
34815;DHT22;21030;53.912;15.214;2023-09-18T14:32:35;39.80;27.50
34815;DHT22;21030;53.912;15.214;2023-09-18T14:35:04;39.90;27.80
34815;DHT22;21030;53.912;15.214;2023-09-18T14:37:36;39.90;27.50
34815;DHT22;21030;53.912;15.214;2023-09-18T14:40:03;40.10;27.50
34815;DHT22;21030;53.912;15.214;2023-09-18T14:42:31;40.10;27.60
34815;DHT22;21030;53.912;15.214;2023-09-18T14:44:58;40.30;27.70
34815;DHT22;21030;53.912;15.214;2023-09-18T14:47:28;40.40;27.30
34815;DHT22;21030;53.912;15.214;2023-09-18T14:49:55;40.00;27.70
34815;DHT22;21030;53.912;15.214;2023-09-18T14:52:25;39.90;27.80
34815;DHT22;21030;53.912;15.214;2023-09-18T14:54:53;39.60;28.20
34815;DHT22;21030;53.912;15.214;2023-09-18T14:57:20;39.80;28.30
34815;DHT22;21030;53.912;15.214;2023-09-18T14:59:47;40.00;28.00
34815;DHT22;21030;53.912;15.214;2023-09-18T15:02:14;40.10;27.70
34815;DHT22;21030;53.912;15.214;2023-09-18T15:04:44;39.70;27.90
34815;DHT22;21030;53.912;15.214;2023-09-18T15:07:11;39.80;27.80
34815;DHT22;21030;53.912;15.214;2023-09-18T15:09:38;39.70;28.10
34815;DHT22;21030;53.912;15.214;2023-09-18T15:12:05;40.30;28.10
34815;DHT22;21030;53.912;15.214;2023-09-18T15:14:36;39.80;28.10
34815;DHT22;21030;53.912;15.214;2023-09-18T15:17:04;40.20;28.10
34815;DHT22;21030;53.912;15.214;2023-09-18T15:19:31;40.20;28.10
34815;DHT22;21030;53.912;15.214;2023-09-18T15:21:58;40.20;27.90
34815;DHT22;21030;53.912;15.214;2023-09-18T15:24:26;40.60;28.10
34815;DHT22;21030;53.912;15.214;2023-09-18T15:26:53;40.80;27.80
34815;DHT22;21030;53.912;15.214;2023-09-18T15:29:20;40.80;27.90
34815;DHT22;21030;53.912;15.214;2023-09-18T15:31:48;40.60;27.80
34815;DHT22;21030;53.912;15.214;2023-09-18T15:34:16;41.10;27.90
34815;DHT22;21030;53.912;15.214;2023-09-18T15:36:44;40.40;28.10
34815;DHT22;21030;53.912;15.214;2023-09-18T15:39:11;40.60;28.10
34815;DHT22;21030;53.912;15.214;2023-09-18T15:41:39;40.50;28.30
34815;DHT22;21030;53.912;15.214;2023-09-18T15:44:07;40.60;28.50
34815;DHT22;21030;53.912;15.214;2023-09-18T15:46:37;40.60;28.30
34815;DHT22;21030;53.912;15.214;2023-09-18T15:49:04;40.90;28.30